Time;durP1;ratioP1;P1;durP2;ratioP2;P2;SDS_P1;SDS_P2;PMS_P1;PMS_P2;Temp;Humidity;BMP_temperature;BMP_pressure;BME280_temperature;BME280_humidity;BME280_pressure;Samples;Min_cycle;Max_cycle;Signal;HPM_P1;HPM_P2
2023/11/12 00:02:24;;;;;;;0.80;0.77;;;;;;;-145.69;66.76;52285.97;5116464;28;20201;-79
2023/11/12 00:04:51;;;;;;;5.83;1.20;;;;;;;-145.69;66.26;52337.44;5116110;28;20648;-79
2023/11/12 00:07:17;;;;;;;1.47;0.93;;;;;;;-145.69;66.67;52317.66;5115952;28;20230;-79
2023/11/12 00:09:44;;;;;;;0.70;0.70;;;;;;;-145.69;66.30;52285.97;5115786;28;20233;-79
2023/11/12 00:12:12;;;;;;;0.83;0.83;;;;;;;-145.69;66.01;52329.53;5115844;28;20225;-79
2023/11/12 00:14:40;;;;;;;1.07;0.80;;;;;;;-145.69;65.61;52293.88;5115572;28;20206;-79
2023/11/12 00:17:07;;;;;;;1.50;0.93;;;;;;;-145.69;65.31;52351.31;5115963;28;20225;-80
2023/11/12 00:19:33;;;;;;;0.90;0.83;;;;;;;-145.69;65.52;52317.66;5115273;28;20628;-79
2023/11/12 00:22:00;;;;;;;2.73;1.00;;;;;;;-145.69;65.63;52325.56;5115875;28;20193;-78
2023/11/12 00:24:27;;;;;;;1.63;1.23;;;;;;;-145.69;65.01;52339.44;5115473;28;20204;-79
2023/11/12 00:26:54;;;;;;;1.50;0.97;;;;;;;-145.69;65.60;52317.66;5115965;28;20200;-79
2023/11/12 00:29:21;;;;;;;3.37;0.83;;;;;;;-145.69;66.28;52345.38;5115338;28;20200;-78
2023/11/12 00:31:49;;;;;;;4.13;0.80;;;;;;;-145.69;66.67;52359.22;5115752;28;20198;-79
2023/11/12 00:34:15;;;;;;;1.17;1.00;;;;;;;-145.69;66.03;52303.78;5115563;28;20651;-79
2023/11/12 00:36:42;;;;;;;6.70;1.30;;;;;;;-145.69;66.78;52341.41;5115508;28;20247;-79
2023/11/12 00:39:10;;;;;;;1.20;1.07;;;;;;;-145.69;66.37;52307.75;5115158;28;20217;-79
2023/11/12 00:41:38;;;;;;;1.87;1.03;;;;;;;-145.69;66.82;52333.47;5115040;28;20208;-79
2023/11/12 00:44:06;;;;;;;1.93;1.00;;;;;;;-145.69;67.63;52337.44;5095154;28;20285;-79
2023/11/12 00:46:36;;;;;;;2.50;1.10;;;;;;;-145.69;67.06;52341.41;5095066;28;20202;-79
2023/11/12 00:49:05;;;;;;;4.47;1.40;;;;;;;-145.69;67.23;52331.50;5094936;28;20198;-79
2023/11/12 00:51:31;;;;;;;1.33;1.10;;;;;;;-145.69;67.18;52341.41;5094812;28;20222;-78
2023/11/12 00:53:57;;;;;;;3.67;1.20;;;;;;;-145.69;67.84;52301.81;5094987;28;20217;-79
2023/11/12 00:56:24;;;;;;;1.90;1.00;;;;;;;-145.69;67.92;52317.66;5094666;28;20585;-79
2023/11/12 00:58:50;;;;;;;2.70;1.00;;;;;;;-145.69;66.96;52325.56;5096426;28;20228;-79
2023/11/12 01:01:17;;;;;;;2.50;0.93;;;;;;;-145.69;66.83;52327.53;5114978;28;20194;-78
2023/11/12 01:03:45;;;;;;;2.63;1.00;;;;;;;-145.69;66.53;52365.16;5115066;28;20650;-78
2023/11/12 01:06:11;;;;;;;3.03;1.20;;;;;;;-145.69;66.94;52297.84;5114409;28;20204;-79
2023/11/12 01:08:39;;;;;;;1.60;1.00;;;;;;;-145.69;66.65;52333.47;5114913;28;20709;-79
2023/11/12 01:11:06;;;;;;;1.90;1.40;;;;;;;-145.69;66.76;52335.47;5105384;28;20552;-79
2023/11/12 01:13:32;;;;;;;2.50;1.43;;;;;;;-145.69;67.03;52319.63;5111420;28;20285;-79
2023/11/12 01:16:00;;;;;;;1.17;1.07;;;;;;;-145.69;66.15;52311.69;5114786;28;20194;-79
2023/11/12 01:18:27;;;;;;;2.40;1.03;;;;;;;-145.69;67.17;52353.28;5113340;28;20225;-79
2023/11/12 01:20:55;;;;;;;4.20;1.10;;;;;;;-145.69;66.70;52349.31;5114742;28;20216;-79
2023/11/12 01:23:22;;;;;;;3.67;0.90;;;;;;;-145.69;67.14;52353.28;5114540;27;20198;-79
2023/11/12 01:25:48;;;;;;;1.50;1.10;;;;;;;-145.69;66.26;52353.28;5114649;28;20197;-78
2023/11/12 01:28:14;;;;;;;2.57;1.10;;;;;;;-145.69;66.63;52377.06;5114127;28;20201;-79
2023/11/12 01:30:42;;;;;;;3.40;1.30;;;;;;;-145.69;67.65;52343.38;5113843;28;20200;-79
2023/11/12 01:33:10;;;;;;;2.40;1.17;;;;;;;-145.69;67.78;52325.56;5114080;28;20198;-79
2023/11/12 01:35:36;;;;;;;1.50;1.10;;;;;;;-145.69;67.01;52329.53;5114116;28;20529;-79
2023/11/12 01:38:04;;;;;;;2.57;0.80;;;;;;;-145.69;67.33;52323.59;5114195;28;20588;-79
2023/11/12 01:40:37;;;;;;;2.13;1.60;;;;;;;-145.69;67.07;52333.47;5114212;28;20537;-78
2023/11/12 01:43:03;;;;;;;3.93;1.50;;;;;;;-145.69;67.43;52367.16;5114343;28;20202;-79
2023/11/12 01:45:30;;;;;;;3.20;1.13;;;;;;;-145.69;67.70;52303.78;5114272;28;20197;-79
2023/11/12 01:47:56;;;;;;;2.27;1.30;;;;;;;-145.69;68.02;52339.44;5113393;28;20647;-79
2023/11/12 01:50:23;;;;;;;2.77;1.40;;;;;;;-145.69;67.65;52323.59;5113823;28;20197;-79
2023/11/12 01:52:50;;;;;;;4.20;1.30;;;;;;;-145.69;68.22;52325.56;5114212;28;20193;-79
2023/11/12 01:55:20;;;;;;;2.30;1.53;;;;;;;-145.69;67.57;52357.25;5114109;28;20201;-79
2023/11/12 01:57:47;;;;;;;2.57;1.63;;;;;;;-145.69;67.58;52353.28;5113780;28;20217;-79
2023/11/12 02:00:16;;;;;;;3.03;1.73;;;;;;;-145.69;67.24;52329.53;5113186;28;20193;-79
2023/11/12 02:02:42;;;;;;;3.40;1.60;;;;;;;-145.69;68.51;52349.31;5113855;28;20254;-79
2023/11/12 02:05:09;;;;;;;5.10;1.30;;;;;;;-145.69;67.93;52337.44;5113807;28;20208;-79
2023/11/12 02:07:37;;;;;;;3.97;1.83;;;;;;;-145.69;68.20;52365.16;5113808;28;20707;-79
2023/11/12 02:10:09;;;;;;;2.83;1.70;;;;;;;-145.69;68.42;52357.25;5113428;28;20198;-79
2023/11/12 02:12:38;;;;;;;4.63;1.70;;;;;;;-145.69;67.75;52355.28;5113783;28;20201;-79
2023/11/12 02:15:05;;;;;;;2.23;1.30;;;;;;;-145.69;67.95;52353.28;5113667;28;20255;-79
2023/11/12 02:17:32;;;;;;;4.90;1.50;;;;;;;-145.69;68.37;52357.25;5113872;28;20194;-79
2023/11/12 02:20:03;;;;;;;3.27;1.80;;;;;;;-145.69;68.52;52363.19;5113594;28;20223;-79
2023/11/12 02:22:30;;;;;;;3.13;1.47;;;;;;;-145.69;68.16;52381.00;5113825;28;20209;-79
2023/11/12 02:24:58;;;;;;;5.43;1.43;;;;;;;-145.69;68.84;52329.53;5113298;28;20197;-79
2023/11/12 02:27:24;;;;;;;1.70;1.50;;;;;;;-145.69;67.09;52321.59;5113433;28;20208;-79
2023/11/12 02:29:51;;;;;;;3.83;1.73;;;;;;;-145.69;66.98;52377.06;5113186;28;20189;-80
2023/11/12 02:32:18;;;;;;;2.77;1.30;;;;;;;-145.69;66.99;52349.31;5113420;28;20208;-79
2023/11/12 02:34:45;;;;;;;2.83;1.37;;;;;;;-145.69;67.86;52361.22;5113183;28;20197;-78
2023/11/12 02:37:12;;;;;;;1.40;1.30;;;;;;;-145.69;67.05;52367.16;5113302;28;20201;-79
2023/11/12 02:39:41;;;;;;;3.63;1.53;;;;;;;-145.69;67.53;52365.16;5112839;28;20695;-79
2023/11/12 02:42:09;;;;;;;5.63;1.77;;;;;;;-145.69;67.37;52351.31;5113619;28;20232;-78
2023/11/12 02:44:36;;;;;;;3.40;1.37;;;;;;;-145.69;68.27;52369.13;5113511;28;20201;-79
2023/11/12 02:47:04;;;;;;;1.47;1.00;;;;;;;-145.69;67.74;52377.06;5113523;28;20207;-79
2023/11/12 02:49:42;;;;;;;4.90;1.43;;;;;;;-145.69;67.87;52345.38;5113383;28;20201;-78
2023/11/12 02:52:09;;;;;;;3.27;1.47;;;;;;;-145.69;66.83;52363.19;5113290;28;20197;-79
2023/11/12 02:54:35;;;;;;;3.53;0.87;;;;;;;-145.69;66.75;52379.03;5113189;28;20287;-78
2023/11/12 02:57:02;;;;;;;3.40;1.10;;;;;;;-145.69;67.39;52351.31;5113417;28;20274;-78
2023/11/12 02:59:30;;;;;;;5.47;1.53;;;;;;;-145.69;68.58;52347.34;5112281;28;20224;-78
2023/11/12 03:01:57;;;;;;;4.50;1.50;;;;;;;-145.69;68.07;52345.38;5113325;28;20568;-78
2023/11/12 03:04:24;;;;;;;2.00;1.47;;;;;;;-145.69;68.45;52390.91;5113132;28;20239;-78
2023/11/12 03:06:51;;;;;;;3.00;1.20;;;;;;;-145.69;68.54;52347.34;5109599;28;20252;-79
2023/11/12 03:09:17;;;;;;;3.30;1.40;;;;;;;-145.69;67.55;52355.28;5113329;28;20296;-77
2023/11/12 03:11:45;;;;;;;1.43;1.20;;;;;;;-145.69;69.14;52361.22;5112963;28;20575;-79
2023/11/12 03:14:12;;;;;;;4.47;1.77;;;;;;;-145.69;68.67;52400.81;5113043;28;20684;-79
2023/11/12 03:16:40;;;;;;;5.87;2.43;;;;;;;-145.69;68.49;52341.41;5112990;28;20641;-78
2023/11/12 03:19:07;;;;;;;4.03;1.73;;;;;;;-145.69;69.03;52345.38;5112778;28;20305;-78
2023/11/12 03:21:33;;;;;;;3.47;1.30;;;;;;;-145.69;69.01;52337.44;5113937;28;20204;-78
2023/11/12 03:24:01;;;;;;;3.80;1.47;;;;;;;-145.69;68.42;52377.06;5117142;28;20197;-79
2023/11/12 03:26:27;;;;;;;3.20;1.50;;;;;;;-145.69;69.30;52349.31;5116963;28;20197;-79
2023/11/12 03:28:54;;;;;;;5.43;1.50;;;;;;;-145.69;68.60;52347.34;5116853;28;20200;-78
2023/11/12 03:31:20;;;;;;;3.37;1.73;;;;;;;-145.69;69.39;52309.72;5116659;28;20200;-78
2023/11/12 03:33:48;;;;;;;4.43;1.67;;;;;;;-145.69;69.39;52361.22;5116509;28;20200;-79
2023/11/12 03:36:15;;;;;;;5.83;2.00;;;;;;;-145.69;69.31;52353.28;5116579;28;20193;-79
2023/11/12 03:38:42;;;;;;;3.90;1.60;;;;;;;-145.69;69.23;52337.44;5117007;28;20315;-78
2023/11/12 03:41:12;;;;;;;5.20;1.63;;;;;;;-145.69;69.04;52317.66;5116358;27;20231;-78
2023/11/12 03:43:38;;;;;;;3.13;1.90;;;;;;;-145.69;68.79;52353.28;5116709;28;20199;-77
2023/11/12 03:46:06;;;;;;;2.80;1.57;;;;;;;-145.69;68.49;52357.25;5116669;28;20201;-78
2023/11/12 03:48:32;;;;;;;2.13;1.30;;;;;;;-145.69;68.06;52353.28;5116366;28;20200;-78
2023/11/12 03:51:00;;;;;;;2.60;1.50;;;;;;;-145.69;68.72;52341.41;5116512;28;20208;-78
2023/11/12 03:53:27;;;;;;;1.97;1.53;;;;;;;-145.69;69.12;52375.06;5116212;28;20193;-78
2023/11/12 03:55:54;;;;;;;2.83;1.80;;;;;;;-145.69;68.87;52388.94;5116506;28;20329;-78
2023/11/12 03:58:20;;;;;;;2.77;1.73;;;;;;;-145.69;69.56;52361.22;5116173;28;20256;-78
2023/11/12 04:00:47;;;;;;;5.30;2.33;;;;;;;-145.69;69.69;52353.28;5115984;28;20224;-77
2023/11/12 04:03:14;;;;;;;4.40;1.67;;;;;;;-145.69;69.36;52355.28;5115925;28;20224;-77
2023/11/12 04:05:41;;;;;;;3.43;2.10;;;;;;;-145.69;68.87;52329.53;5116090;28;20201;-77
2023/11/12 04:08:09;;;;;;;4.23;1.97;;;;;;;-145.69;68.28;52349.31;5115624;28;20271;-77
2023/11/12 04:10:35;;;;;;;3.87;2.30;;;;;;;-145.69;68.06;52347.34;5116324;28;20204;-77
2023/11/12 04:13:02;;;;;;;3.73;2.07;;;;;;;-145.69;67.63;52357.25;5116187;28;20208;-76
2023/11/12 04:15:29;;;;;;;2.03;1.63;;;;;;;-145.69;68.05;52347.34;5115692;28;20201;-77
2023/11/12 04:17:55;;;;;;;11.10;2.10;;;;;;;-145.69;69.14;52353.28;5115820;28;20648;-77
2023/11/12 04:20:23;;;;;;;4.87;2.13;;;;;;;-145.69;69.63;52339.44;5116159;28;20193;-77
2023/11/12 04:22:50;;;;;;;3.30;2.23;;;;;;;-145.69;69.34;52353.28;5115980;28;20197;-78
2023/11/12 04:25:18;;;;;;;4.07;2.57;;;;;;;-145.69;69.56;52317.66;5115909;28;20584;-78
2023/11/12 04:27:45;;;;;;;4.67;2.50;;;;;;;-145.69;69.05;52361.22;5115480;28;20185;-78
2023/11/12 04:30:12;;;;;;;5.70;2.47;;;;;;;-145.69;68.78;52363.19;5115631;28;20278;-78
2023/11/12 04:32:38;;;;;;;4.93;2.40;;;;;;;-145.69;68.42;52349.31;5114776;28;20201;-78
2023/11/12 04:35:06;;;;;;;4.13;2.47;;;;;;;-145.69;68.66;52319.63;5115153;28;20197;-78
2023/11/12 04:37:33;;;;;;;5.33;2.63;;;;;;;-145.69;68.83;52345.38;5115695;28;20204;-78
2023/11/12 04:39:59;;;;;;;3.23;2.40;;;;;;;-145.69;68.91;52381.00;5115516;28;20225;-78
2023/11/12 04:42:27;;;;;;;5.27;3.17;;;;;;;-145.69;69.51;52341.41;5115478;28;20205;-78
2023/11/12 04:44:54;;;;;;;6.07;3.20;;;;;;;-145.69;69.09;52343.38;5115016;28;20553;-78
2023/11/12 04:47:21;;;;;;;5.33;2.93;;;;;;;-145.69;68.51;52369.13;5115616;28;20198;-78
2023/11/12 04:49:47;;;;;;;6.57;3.30;;;;;;;-145.69;69.01;52347.34;5115063;28;20446;-78
2023/11/12 04:52:14;;;;;;;7.03;2.90;;;;;;;-145.69;68.67;52390.91;5115399;28;20541;-78
2023/11/12 04:54:40;;;;;;;5.10;2.77;;;;;;;-145.69;69.00;52369.13;5115334;28;20586;-78
2023/11/12 04:57:06;;;;;;;5.03;2.67;;;;;;;-145.69;69.11;52361.22;5115101;28;20202;-78
2023/11/12 04:59:34;;;;;;;6.50;3.23;;;;;;;-145.69;69.38;52369.13;5115036;28;20699;-78
2023/11/12 05:02:01;;;;;;;5.23;3.10;;;;;;;-145.69;68.95;52345.38;5100316;28;20198;-78
2023/11/12 05:04:28;;;;;;;6.17;3.10;;;;;;;-145.69;69.20;52345.38;5094462;28;20661;-78
2023/11/12 05:06:55;;;;;;;5.53;3.10;;;;;;;-145.69;68.75;52353.28;5094548;28;20237;-78
2023/11/12 05:09:21;;;;;;;6.93;3.20;;;;;;;-145.69;69.10;52351.31;5094553;28;20206;-78
2023/11/12 05:11:48;;;;;;;6.13;3.20;;;;;;;-145.69;68.86;52373.09;5094334;28;20259;-78
2023/11/12 05:14:14;;;;;;;3.40;2.43;;;;;;;-145.69;68.96;52359.22;5094769;28;20204;-79
2023/11/12 05:16:43;;;;;;;5.30;2.60;;;;;;;-145.69;68.89;52339.44;5114376;28;20204;-78
2023/11/12 05:19:10;;;;;;;5.47;2.97;;;;;;;-145.69;69.17;52361.22;5114787;28;20397;-79
2023/11/12 05:21:36;;;;;;;4.57;2.80;;;;;;;-145.69;68.89;52341.41;5114744;28;20229;-78
2023/11/12 05:24:04;;;;;;;3.93;2.50;;;;;;;-145.69;68.81;52384.97;5114682;28;20205;-79
2023/11/12 05:26:31;;;;;;;4.37;2.70;;;;;;;-145.69;69.05;52345.38;5114578;28;20202;-79
2023/11/12 05:28:58;;;;;;;5.83;2.90;;;;;;;-145.69;69.27;52351.31;5113459;28;20196;-78
2023/11/12 05:31:25;;;;;;;4.30;2.97;;;;;;;-145.69;68.79;52351.31;5113978;28;20651;-78
2023/11/12 05:33:53;;;;;;;7.87;3.20;;;;;;;-145.69;69.18;52359.22;5114427;28;20679;-78
2023/11/12 05:36:20;;;;;;;4.80;3.17;;;;;;;-145.69;68.52;52335.47;5114340;28;20197;-78
2023/11/12 05:38:46;;;;;;;4.27;3.00;;;;;;;-145.69;67.90;52329.53;5114338;28;20225;-78
2023/11/12 05:41:13;;;;;;;4.23;2.53;;;;;;;-145.69;68.21;52361.22;5112922;28;20197;-78
2023/11/12 05:43:39;;;;;;;5.33;3.03;;;;;;;-145.69;68.36;52321.59;5113971;28;20652;-78
2023/11/12 05:46:06;;;;;;;7.03;2.87;;;;;;;-145.69;68.58;52337.44;5114124;28;20197;-78
2023/11/12 05:48:32;;;;;;;5.50;2.77;;;;;;;-145.69;68.33;52333.47;5114282;28;20537;-78
2023/11/12 05:51:00;;;;;;;6.97;2.50;;;;;;;-145.69;68.52;52361.22;5113894;28;20201;-78
2023/11/12 05:53:27;;;;;;;7.80;2.70;;;;;;;-145.69;68.07;52339.44;5114049;28;20201;-78
2023/11/12 05:55:53;;;;;;;4.80;3.00;;;;;;;-145.69;68.87;52351.31;5114322;28;20198;-79
2023/11/12 05:58:20;;;;;;;5.87;2.87;;;;;;;-145.69;68.72;52349.31;5113600;28;20185;-78
2023/11/12 06:00:47;;;;;;;4.17;2.57;;;;;;;-145.69;68.40;52365.16;5113907;28;20336;-78
2023/11/12 06:03:13;;;;;;;7.50;2.90;;;;;;;-145.69;68.44;52369.13;5113771;28;20200;-78
2023/11/12 06:05:40;;;;;;;6.10;3.10;;;;;;;-145.69;68.77;52323.59;5113934;28;20564;-78
2023/11/12 06:08:08;;;;;;;7.03;2.77;;;;;;;-145.69;68.45;52369.13;5112942;28;20221;-77
2023/11/12 06:10:35;;;;;;;4.00;2.73;;;;;;;-145.69;68.34;52337.44;5113232;28;20547;-78
2023/11/12 06:13:01;;;;;;;3.90;2.63;;;;;;;-145.69;68.06;52345.38;5113849;28;20202;-77
2023/11/12 06:15:28;;;;;;;10.53;2.63;;;;;;;-145.69;68.37;52345.38;5113713;28;20212;-79
2023/11/12 06:17:54;;;;;;;8.50;2.60;;;;;;;-145.69;68.15;52355.28;5113654;28;20209;-79
2023/11/12 06:20:23;;;;;;;3.83;2.60;;;;;;;-145.69;67.92;52333.47;5113302;28;20702;-78
2023/11/12 06:22:49;;;;;;;4.07;2.37;;;;;;;-145.69;67.78;52353.28;5113870;28;20284;-78
2023/11/12 06:25:17;;;;;;;2.40;2.07;;;;;;;-145.69;67.60;52349.31;5113598;28;20201;-79
2023/11/12 06:27:44;;;;;;;5.63;2.80;;;;;;;-145.69;67.46;52337.44;5113752;28;20659;-78
2023/11/12 06:30:11;;;;;;;8.93;2.77;;;;;;;-145.69;68.02;52337.44;5113336;28;20556;-79
2023/11/12 06:32:38;;;;;;;4.33;2.53;;;;;;;-145.69;68.10;52323.59;5113546;28;20204;-78
2023/11/12 06:35:05;;;;;;;3.50;2.47;;;;;;;-145.69;68.52;52381.00;5113437;28;20224;-78
2023/11/12 06:37:32;;;;;;;4.10;2.40;;;;;;;-145.69;68.62;52363.19;5113429;28;20213;-78
2023/11/12 06:39:59;;;;;;;3.00;2.17;;;;;;;-145.69;68.21;52331.50;5112796;28;20229;-78
2023/11/12 06:42:27;;;;;;;5.07;2.70;;;;;;;-145.69;68.46;52341.41;5113408;28;20208;-78
2023/11/12 06:44:54;;;;;;;4.20;2.37;;;;;;;-145.69;68.24;52381.00;5113327;28;20208;-78
2023/11/12 06:47:21;;;;;;;4.67;2.33;;;;;;;-145.69;68.50;52345.38;5113340;28;20197;-79
2023/11/12 06:49:47;;;;;;;4.77;2.77;;;;;;;-145.69;68.20;52379.03;5113121;28;20657;-79
2023/11/12 06:52:15;;;;;;;5.63;2.53;;;;;;;-145.69;68.38;52325.56;5113256;28;20549;-79
2023/11/12 06:54:42;;;;;;;6.37;2.57;;;;;;;-145.69;67.98;52309.72;5113083;28;20201;-79
2023/11/12 06:57:08;;;;;;;3.40;2.20;;;;;;;-145.69;68.34;52339.44;5113430;28;20208;-78
2023/11/12 06:59:36;;;;;;;5.20;2.30;;;;;;;-145.69;68.85;52361.22;5117272;28;20248;-78
2023/11/12 07:02:02;;;;;;;9.40;2.70;;;;;;;-145.69;68.77;52373.09;5117270;28;20271;-79
2023/11/12 07:04:30;;;;;;;5.00;2.10;;;;;;;-145.69;68.63;52327.53;5117349;28;20548;-77
2023/11/12 07:06:57;;;;;;;4.40;2.40;;;;;;;-145.69;68.37;52345.38;5117323;27;20229;-79
2023/11/12 07:09:24;;;;;;;3.57;2.27;;;;;;;-145.69;68.23;52347.34;5117207;28;20201;-79
2023/11/12 07:11:50;;;;;;;3.10;2.40;;;;;;;-145.69;68.48;52343.38;5117039;28;20660;-79
2023/11/12 07:14:17;;;;;;;4.10;2.10;;;;;;;-145.69;68.25;52333.47;5117130;28;20193;-79
2023/11/12 07:16:44;;;;;;;4.30;2.33;;;;;;;-145.69;68.15;52315.66;5117015;28;20201;-79
2023/11/12 07:19:12;;;;;;;5.67;2.17;;;;;;;-145.69;67.89;52339.44;5116823;28;20204;-78
2023/11/12 07:21:40;;;;;;;5.13;2.33;;;;;;;-145.69;67.65;52309.72;5116867;28;20236;-79
2023/11/12 07:24:07;;;;;;;6.53;3.20;;;;;;;-145.69;68.09;52345.38;5117272;28;20198;-78
2023/11/12 07:26:34;;;;;;;5.83;3.30;;;;;;;-145.69;67.45;52359.22;5117061;28;20193;-79
2023/11/12 07:29:01;;;;;;;9.20;3.47;;;;;;;-145.69;68.01;52327.53;5116611;28;20189;-77
2023/11/12 07:31:27;;;;;;;6.10;3.67;;;;;;;-145.69;68.31;52331.50;5117062;28;20199;-78
2023/11/12 07:33:55;;;;;;;7.30;2.50;;;;;;;-145.69;68.05;52333.47;5116615;28;20699;-79
2023/11/12 07:36:22;;;;;;;7.30;2.57;;;;;;;-145.69;67.90;52333.47;5117075;28;20205;-77
2023/11/12 07:38:51;;;;;;;5.70;2.57;;;;;;;-145.69;68.13;52319.63;5116215;28;20552;-79
2023/11/12 07:41:18;;;;;;;8.70;2.93;;;;;;;-145.69;68.19;52339.44;5116118;28;20699;-78
2023/11/12 07:43:45;;;;;;;7.60;3.07;;;;;;;-145.69;68.10;52276.06;5116527;28;20197;-79
2023/11/12 07:46:12;;;;;;;13.03;5.33;;;;;;;-145.69;67.72;52361.22;5116517;28;20197;-79
2023/11/12 07:48:44;;;;;;;14.60;6.00;;;;;;;-145.69;67.55;52303.78;5116171;28;20656;-78
2023/11/12 07:51:19;;;;;;;19.53;9.37;;;;;;;-145.69;67.33;52337.44;5116123;28;20270;-78
2023/11/12 07:53:46;;;;;;;22.57;9.80;;;;;;;-145.69;67.81;52339.44;5116600;28;20205;-79
2023/11/12 07:56:29;;;;;;;17.57;6.53;;;;;;;-145.69;67.63;52309.72;5115993;28;20317;-79
2023/11/12 07:58:59;;;;;;;12.43;5.57;;;;;;;-145.69;67.20;52303.78;5116313;28;20204;-78
2023/11/12 08:01:28;;;;;;;9.67;5.17;;;;;;;-145.69;67.61;52327.53;5116065;28;20711;-78
2023/11/12 08:03:55;;;;;;;10.37;4.50;;;;;;;-145.69;67.37;52305.75;5116027;28;20193;-78
2023/11/12 08:06:23;;;;;;;13.27;5.30;;;;;;;-145.69;66.89;52319.63;5115562;28;20232;-78
2023/11/12 08:08:50;;;;;;;9.53;5.63;;;;;;;-145.69;66.60;52315.66;5115532;28;20205;-79
2023/11/12 08:11:19;;;;;;;13.33;5.03;;;;;;;-145.69;66.17;52347.34;5115745;28;20674;-79
2023/11/12 08:13:46;;;;;;;11.80;5.60;;;;;;;-145.69;66.40;52311.69;5115920;28;20238;-79
2023/11/12 08:16:12;;;;;;;8.97;4.47;;;;;;;-145.69;65.89;52301.81;5115739;28;20273;-78
2023/11/12 08:18:43;;;;;;;9.93;5.30;;;;;;;-145.69;65.23;52331.50;5115991;28;20292;-79
2023/11/12 08:21:13;;;;;;;9.73;5.27;;;;;;;-145.69;65.73;52266.16;5115934;28;20249;-78
2023/11/12 08:23:40;;;;;;;9.97;5.07;;;;;;;-145.69;64.48;52282.00;5115547;28;20229;-78
2023/11/12 08:26:07;;;;;;;6.90;4.37;;;;;;;-145.69;64.48;52295.84;5115290;28;20197;-78
2023/11/12 08:28:40;;;;;;;9.30;4.93;;;;;;;-145.69;64.77;52295.84;5115481;28;20731;-79
2023/11/12 08:31:06;;;;;;;8.30;4.30;;;;;;;-145.69;64.97;52299.81;5115605;27;20212;-78
2023/11/12 08:33:36;;;;;;;11.13;4.33;;;;;;;-145.69;64.49;52315.66;5115234;28;20288;-78
2023/11/12 08:36:03;;;;;;;6.03;3.07;;;;;;;-145.69;64.91;52309.72;5115492;28;20276;-79
2023/11/12 08:38:35;;;;;;;5.37;3.03;;;;;;;-145.69;64.23;52291.91;5115007;28;20198;-79
2023/11/12 08:41:08;;;;;;;4.87;2.43;;;;;;;-145.69;63.52;52289.91;5115438;28;20232;-79
2023/11/12 08:43:34;;;;;;;4.23;2.33;;;;;;;-145.69;64.61;52287.94;5114990;28;20287;-78
2023/11/12 08:46:01;;;;;;;5.07;3.00;;;;;;;-145.69;64.83;52289.91;5115479;28;20201;-78
2023/11/12 08:48:31;;;;;;;4.97;2.57;;;;;;;-145.69;64.66;52282.00;5115338;28;20209;-78
2023/11/12 08:50:59;;;;;;;4.47;2.60;;;;;;;-145.69;64.36;52317.66;5115183;28;20575;-78
2023/11/12 08:53:27;;;;;;;7.20;3.00;;;;;;;-145.69;64.57;52285.97;5115179;28;20660;-78
2023/11/12 08:55:53;;;;;;;6.63;2.43;;;;;;;-145.69;64.70;52276.06;5114852;28;20201;-79
2023/11/12 08:58:21;;;;;;;4.57;2.47;;;;;;;-145.69;64.44;52274.06;5115314;28;20202;-79
2023/11/12 09:00:48;;;;;;;6.27;2.90;;;;;;;-145.69;62.21;52309.72;5108136;27;20225;-78
2023/11/12 09:03:14;;;;;;;4.03;2.60;;;;;;;-145.69;63.38;52287.94;5114579;27;20233;-78
2023/11/12 09:05:44;;;;;;;5.37;2.83;;;;;;;-145.69;61.06;52321.59;5114837;28;20194;-78
2023/11/12 09:08:10;;;;;;;7.37;3.60;;;;;;;-145.69;61.94;52329.53;5114595;28;20553;-79
2023/11/12 09:10:37;;;;;;;4.97;2.77;;;;;;;-145.69;62.49;52297.84;5114640;28;20204;-78
2023/11/12 09:13:04;;;;;;;4.90;2.73;;;;;;;-145.69;63.05;52285.97;5114784;28;20205;-78
2023/11/12 09:15:32;;;;;;;5.57;2.90;;;;;;;-145.69;63.49;52301.81;5114761;28;20288;-79
2023/11/12 09:18:02;;;;;;;7.77;2.67;;;;;;;-145.69;63.17;52266.16;5114607;28;20201;-79
2023/11/12 09:20:28;;;;;;;6.27;2.63;;;;;;;-145.69;61.57;52313.69;5113594;28;20325;-79
2023/11/12 09:22:57;;;;;;;4.77;2.80;;;;;;;-145.69;59.75;52307.75;5114696;28;20232;-78
2023/11/12 09:25:24;;;;;;;5.10;2.13;;;;;;;-145.69;61.09;52291.91;5114719;28;20201;-78
2023/11/12 09:27:51;;;;;;;5.50;2.33;;;;;;;-145.69;60.80;52285.97;5113949;28;20650;-77
2023/11/12 09:30:17;;;;;;;4.63;2.10;;;;;;;-145.69;58.02;52282.00;5114361;28;20201;-78
2023/11/12 09:32:45;;;;;;;3.53;1.97;;;;;;;-145.69;58.17;52258.22;5114616;28;20193;-78
2023/11/12 09:35:12;;;;;;;4.93;1.97;;;;;;;-145.69;59.41;52297.84;5114457;28;20675;-78
2023/11/12 09:37:39;;;;;;;3.83;1.40;;;;;;;-145.69;58.02;52262.19;5113744;28;20690;-78
2023/11/12 09:40:10;;;;;;;3.83;1.73;;;;;;;-145.69;56.88;52240.41;5114248;28;20221;-78
2023/11/12 09:42:39;;;;;;;5.00;2.00;;;;;;;-145.69;58.04;52274.06;5114242;28;20763;-78
2023/11/12 09:45:08;;;;;;;2.00;1.80;;;;;;;-145.69;57.50;52282.00;5113917;28;20197;-78
2023/11/12 09:47:43;;;;;;;6.60;2.37;;;;;;;-145.69;57.48;52270.13;5114020;28;20201;-79
2023/11/12 09:50:12;;;;;;;3.57;2.03;;;;;;;-145.69;56.57;52258.22;5114182;28;20675;-78
2023/11/12 09:52:41;;;;;;;3.57;2.03;;;;;;;-145.69;56.86;52230.50;5114081;28;20208;-79
2023/11/12 09:55:10;;;;;;;4.27;2.10;;;;;;;-145.69;55.27;52234.47;5113688;28;20207;-79
2023/11/12 09:57:37;;;;;;;3.23;2.00;;;;;;;-145.69;51.88;52283.97;5113957;28;20202;-79
2023/11/12 10:00:06;;;;;;;3.23;1.90;;;;;;;-145.69;51.28;52238.44;5114117;28;20225;-79
2023/11/12 10:02:34;;;;;;;3.00;1.60;;;;;;;-145.69;50.44;52276.06;5113993;28;20201;-79
2023/11/12 10:05:10;;;;;;;3.63;1.80;;;;;;;-145.69;52.26;52287.94;5113548;28;20213;-79
2023/11/12 10:07:38;;;;;;;4.37;2.13;;;;;;;-145.69;51.40;52258.22;5112959;28;20221;-79
2023/11/12 10:10:21;;;;;;;2.67;1.70;;;;;;;-145.69;51.50;52258.22;5113675;28;20284;-79
2023/11/12 10:12:49;;;;;;;2.77;1.90;;;;;;;-145.69;52.44;52244.38;5113288;28;20247;-79
2023/11/12 10:15:21;;;;;;;3.40;2.30;;;;;;;-145.69;51.33;52242.38;5113841;28;20204;-79
2023/11/12 10:17:48;;;;;;;24.20;10.00;;;;;;;-145.69;52.65;52258.22;5113491;28;20552;-79
2023/11/12 10:20:20;;;;;;;22.40;10.23;;;;;;;-145.69;51.84;52234.47;5113560;28;20324;-79
2023/11/12 10:22:51;;;;;;;53.53;22.03;;;;;;;-145.69;51.15;52262.19;5113628;28;20288;-79
2023/11/12 10:25:35;;;;;;;29.87;11.63;;;;;;;-145.69;51.92;52218.63;5113625;28;20216;-79
2023/11/12 10:28:02;;;;;;;7.47;4.03;;;;;;;-145.69;50.70;52252.28;5112997;28;20198;-79
2023/11/12 10:30:28;;;;;;;7.47;4.17;;;;;;;-145.69;51.02;52236.44;5113324;28;20295;-79
2023/11/12 10:32:58;;;;;;;5.60;3.50;;;;;;;-145.69;50.72;52248.34;5113623;28;20197;-79
2023/11/12 10:35:25;;;;;;;4.60;2.97;;;;;;;-145.69;50.72;52256.25;5112915;28;20710;-79
2023/11/12 10:37:58;;;;;;;8.40;3.43;;;;;;;-145.69;50.72;52250.31;5112903;28;20556;-79
2023/11/12 10:40:28;;;;;;;4.57;3.10;;;;;;;-145.69;51.01;52236.44;5113232;28;20221;-79
2023/11/12 10:43:06;;;;;;;4.33;2.50;;;;;;;-145.69;50.97;52270.13;5113054;28;20225;-79
2023/11/12 10:45:36;;;;;;;4.83;2.20;;;;;;;-145.69;51.18;52236.44;5113426;28;20193;-78
2023/11/12 10:48:13;;;;;;;6.77;3.10;;;;;;;-145.69;51.29;52258.22;5113194;28;20243;-78
2023/11/12 10:50:41;;;;;;;5.53;2.70;;;;;;;-145.69;51.77;52301.81;5112868;28;20670;-78
2023/11/12 10:53:10;;;;;;;5.67;2.70;;;;;;;-145.69;52.82;52252.28;5113133;28;20197;-79
2023/11/12 10:55:42;;;;;;;6.17;3.37;;;;;;;-145.69;51.76;52278.03;5112710;28;20705;-79
2023/11/12 10:58:10;;;;;;;76.17;31.80;;;;;;;-145.69;52.33;52250.31;5113169;28;20276;-78
2023/11/12 11:00:39;;;;;;;19.67;8.93;;;;;;;-145.69;52.70;52270.13;5108917;28;20251;-78
2023/11/12 11:03:08;;;;;;;5.43;2.93;;;;;;;-145.69;53.40;52254.28;5112853;28;20251;-79
2023/11/12 11:05:35;;;;;;;8.60;4.83;;;;;;;-145.69;53.25;52262.19;5109251;28;20203;-80
2023/11/12 11:08:09;;;;;;;4.03;2.40;;;;;;;-145.69;52.79;52270.13;5096170;28;20229;-80
2023/11/12 11:10:37;;;;;;;3.20;2.10;;;;;;;-145.69;52.91;52264.16;5112810;28;20201;-78
2023/11/12 11:13:04;;;;;;;3.93;2.10;;;;;;;-145.69;52.31;52214.66;5112655;28;20197;-79
2023/11/12 11:15:45;;;;;;;3.90;2.10;;;;;;;-145.69;52.60;52240.41;5112764;28;20204;-79
2023/11/12 11:18:48;;;;;;;3.73;1.90;;;;;;;-145.69;52.59;52248.34;5112811;28;20197;-80
2023/11/12 11:21:15;;;;;;;4.07;2.33;;;;;;;-145.69;52.73;52250.31;5112595;28;20224;-79